sensor_id;sensor_type;location;lat;lon;timestamp;pressure;altitude;pressure_sealevel;temperature;humidity
46087;BME280;31824;49.648;8.640;2023-04-29T00:02:28;99992.00;;;12.77;100.00
46087;BME280;31824;49.648;8.640;2023-04-29T00:05:32;99998.56;;;12.60;100.00
46087;BME280;31824;49.648;8.640;2023-04-29T00:08:34;100001.66;;;12.76;100.00
46087;BME280;31824;49.648;8.640;2023-04-29T00:11:37;99998.91;;;12.75;100.00
46087;BME280;31824;49.648;8.640;2023-04-29T00:14:40;100000.56;;;12.84;100.00
46087;BME280;31824;49.648;8.640;2023-04-29T00:17:43;100003.25;;;12.96;100.00
46087;BME280;31824;49.648;8.640;2023-04-29T00:20:46;100008.09;;;13.02;100.00
46087;BME280;31824;49.648;8.640;2023-04-29T00:23:48;100001.53;;;12.97;100.00
46087;BME280;31824;49.648;8.640;2023-04-29T00:26:50;100015.38;;;12.94;100.00
46087;BME280;31824;49.648;8.640;2023-04-29T00:29:53;100007.66;;;13.08;100.00
46087;BME280;31824;49.648;8.640;2023-04-29T00:32:56;100009.63;;;13.10;100.00
46087;BME280;31824;49.648;8.640;2023-04-29T00:35:58;100018.59;;;13.12;100.00
46087;BME280;31824;49.648;8.640;2023-04-29T00:39:00;100015.44;;;13.06;100.00
46087;BME280;31824;49.648;8.640;2023-04-29T00:42:02;100023.22;;;13.27;100.00
46087;BME280;31824;49.648;8.640;2023-04-29T00:45:08;100004.06;;;13.29;100.00
46087;BME280;31824;49.648;8.640;2023-04-29T00:48:09;100009.34;;;13.29;100.00
46087;BME280;31824;49.648;8.640;2023-04-29T00:51:12;100012.09;;;13.31;100.00
46087;BME280;31824;49.648;8.640;2023-04-29T00:54:15;100015.69;;;13.31;100.00
46087;BME280;31824;49.648;8.640;2023-04-29T00:57:18;100010.91;;;13.38;100.00
46087;BME280;31824;49.648;8.640;2023-04-29T01:00:21;100014.06;;;13.33;100.00
46087;BME280;31824;49.648;8.640;2023-04-29T01:03:23;100023.13;;;13.03;100.00
46087;BME280;31824;49.648;8.640;2023-04-29T01:06:32;100012.81;;;13.06;100.00
46087;BME280;31824;49.648;8.640;2023-04-29T01:09:48;100009.22;;;12.72;100.00
46087;BME280;31824;49.648;8.640;2023-04-29T01:13:04;100002.19;;;12.50;100.00
46087;BME280;31824;49.648;8.640;2023-04-29T01:16:12;100002.78;;;12.58;100.00
46087;BME280;31824;49.648;8.640;2023-04-29T01:19:31;100006.13;;;12.55;100.00
46087;BME280;31824;49.648;8.640;2023-04-29T01:22:39;99997.00;;;12.29;100.00
46087;BME280;31824;49.648;8.640;2023-04-29T01:25:42;100000.44;;;12.18;100.00
46087;BME280;31824;49.648;8.640;2023-04-29T01:28:59;100002.84;;;12.15;100.00
46087;BME280;31824;49.648;8.640;2023-04-29T01:32:04;99983.75;;;12.07;100.00
46087;BME280;31824;49.648;8.640;2023-04-29T01:35:17;99991.16;;;12.01;100.00
46087;BME280;31824;49.648;8.640;2023-04-29T01:38:26;99990.88;;;11.98;100.00
46087;BME280;31824;49.648;8.640;2023-04-29T01:41:41;99986.03;;;12.03;100.00
46087;BME280;31824;49.648;8.640;2023-04-29T01:44:54;99996.81;;;11.85;100.00
46087;BME280;31824;49.648;8.640;2023-04-29T01:47:59;99992.75;;;11.89;100.00
46087;BME280;31824;49.648;8.640;2023-04-29T01:51:03;99990.25;;;11.90;100.00
46087;BME280;31824;49.648;8.640;2023-04-29T01:54:07;100001.16;;;12.05;100.00
46087;BME280;31824;49.648;8.640;2023-04-29T01:57:10;99996.84;;;11.95;100.00
46087;BME280;31824;49.648;8.640;2023-04-29T02:00:26;100001.63;;;12.22;100.00
46087;BME280;31824;49.648;8.640;2023-04-29T02:03:28;100007.31;;;12.16;100.00
46087;BME280;31824;49.648;8.640;2023-04-29T02:06:31;100002.97;;;12.16;100.00
46087;BME280;31824;49.648;8.640;2023-04-29T02:09:37;100004.91;;;12.29;100.00
46087;BME280;31824;49.648;8.640;2023-04-29T02:12:45;100011.63;;;12.26;100.00
46087;BME280;31824;49.648;8.640;2023-04-29T02:15:47;100006.50;;;12.17;100.00
46087;BME280;31824;49.648;8.640;2023-04-29T02:18:49;100018.47;;;12.24;100.00
46087;BME280;31824;49.648;8.640;2023-04-29T02:21:51;100015.75;;;12.12;100.00
46087;BME280;31824;49.648;8.640;2023-04-29T02:24:53;100013.91;;;12.21;100.00
46087;BME280;31824;49.648;8.640;2023-04-29T02:27:56;100019.28;;;12.23;100.00
46087;BME280;31824;49.648;8.640;2023-04-29T02:30:58;100017.19;;;12.19;100.00
46087;BME280;31824;49.648;8.640;2023-04-29T02:34:00;100029.69;;;12.21;100.00
46087;BME280;31824;49.648;8.640;2023-04-29T02:37:02;100031.50;;;12.22;100.00
46087;BME280;31824;49.648;8.640;2023-04-29T02:40:06;100022.19;;;12.15;100.00
46087;BME280;31824;49.648;8.640;2023-04-29T02:43:10;100024.84;;;12.05;100.00
46087;BME280;31824;49.648;8.640;2023-04-29T02:46:12;100029.97;;;12.14;100.00
46087;BME280;31824;49.648;8.640;2023-04-29T02:49:14;100029.16;;;12.15;100.00
46087;BME280;31824;49.648;8.640;2023-04-29T02:52:16;100026.53;;;12.15;100.00
46087;BME280;31824;49.648;8.640;2023-04-29T02:55:20;100034.72;;;11.97;100.00
46087;BME280;31824;49.648;8.640;2023-04-29T02:58:23;100035.94;;;12.01;100.00
46087;BME280;31824;49.648;8.640;2023-04-29T03:01:25;100034.84;;;11.99;100.00
46087;BME280;31824;49.648;8.640;2023-04-29T03:04:27;100031.16;;;11.87;100.00
46087;BME280;31824;49.648;8.640;2023-04-29T03:07:29;100037.63;;;11.80;100.00
46087;BME280;31824;49.648;8.640;2023-04-29T03:10:31;100027.75;;;11.77;100.00
46087;BME280;31824;49.648;8.640;2023-04-29T03:13:35;100035.63;;;11.77;100.00
46087;BME280;31824;49.648;8.640;2023-04-29T03:16:36;100037.88;;;11.93;100.00
46087;BME280;31824;49.648;8.640;2023-04-29T03:19:39;100039.06;;;11.87;100.00
46087;BME280;31824;49.648;8.640;2023-04-29T03:22:41;100040.00;;;11.97;100.00
46087;BME280;31824;49.648;8.640;2023-04-29T03:25:44;100043.13;;;11.83;100.00
46087;BME280;31824;49.648;8.640;2023-04-29T03:28:47;100036.81;;;11.71;100.00
46087;BME280;31824;49.648;8.640;2023-04-29T03:31:49;100040.41;;;11.71;100.00
46087;BME280;31824;49.648;8.640;2023-04-29T03:34:51;100040.00;;;11.77;100.00
46087;BME280;31824;49.648;8.640;2023-04-29T03:38:19;100045.38;;;11.68;100.00
46087;BME280;31824;49.648;8.640;2023-04-29T03:41:22;100048.28;;;11.61;100.00
46087;BME280;31824;49.648;8.640;2023-04-29T03:44:26;100044.72;;;11.50;100.00
46087;BME280;31824;49.648;8.640;2023-04-29T03:47:29;100045.91;;;11.43;100.00
46087;BME280;31824;49.648;8.640;2023-04-29T03:50:31;100050.78;;;11.59;100.00
46087;BME280;31824;49.648;8.640;2023-04-29T03:53:33;100057.66;;;11.57;100.00
46087;BME280;31824;49.648;8.640;2023-04-29T03:56:37;100056.03;;;11.59;100.00
46087;BME280;31824;49.648;8.640;2023-04-29T03:59:41;100066.19;;;11.65;100.00
46087;BME280;31824;49.648;8.640;2023-04-29T04:02:43;100065.66;;;11.69;100.00
46087;BME280;31824;49.648;8.640;2023-04-29T04:05:47;100062.78;;;11.76;100.00
46087;BME280;31824;49.648;8.640;2023-04-29T04:08:50;100069.72;;;11.76;100.00
46087;BME280;31824;49.648;8.640;2023-04-29T04:11:56;100076.16;;;11.69;100.00
46087;BME280;31824;49.648;8.640;2023-04-29T04:14:59;100081.69;;;11.82;100.00
46087;BME280;31824;49.648;8.640;2023-04-29T04:18:02;100085.66;;;11.88;100.00
46087;BME280;31824;49.648;8.640;2023-04-29T04:21:04;100079.72;;;11.90;100.00
46087;BME280;31824;49.648;8.640;2023-04-29T04:24:06;100089.91;;;11.96;100.00
46087;BME280;31824;49.648;8.640;2023-04-29T04:27:09;100080.16;;;11.95;100.00
46087;BME280;31824;49.648;8.640;2023-04-29T04:30:18;100088.66;;;11.92;100.00
46087;BME280;31824;49.648;8.640;2023-04-29T04:33:20;100090.66;;;11.85;100.00
46087;BME280;31824;49.648;8.640;2023-04-29T04:36:23;100089.78;;;11.94;100.00
46087;BME280;31824;49.648;8.640;2023-04-29T04:39:25;100100.91;;;11.92;100.00
46087;BME280;31824;49.648;8.640;2023-04-29T04:42:30;100105.94;;;11.89;100.00
46087;BME280;31824;49.648;8.640;2023-04-29T04:45:34;100113.31;;;12.03;100.00
46087;BME280;31824;49.648;8.640;2023-04-29T04:48:37;100110.69;;;12.03;100.00
46087;BME280;31824;49.648;8.640;2023-04-29T04:51:42;100114.75;;;12.10;100.00
46087;BME280;31824;49.648;8.640;2023-04-29T04:54:45;100118.06;;;11.97;100.00
46087;BME280;31824;49.648;8.640;2023-04-29T04:57:51;100120.16;;;12.11;100.00
46087;BME280;31824;49.648;8.640;2023-04-29T05:00:54;100118.97;;;11.97;100.00
46087;BME280;31824;49.648;8.640;2023-04-29T05:03:56;100118.97;;;11.97;100.00
46087;BME280;31824;49.648;8.640;2023-04-29T05:06:58;100121.75;;;12.09;100.00
46087;BME280;31824;49.648;8.640;2023-04-29T05:10:07;100139.38;;;12.21;100.00
46087;BME280;31824;49.648;8.640;2023-04-29T05:13:16;100135.16;;;12.12;100.00
46087;BME280;31824;49.648;8.640;2023-04-29T05:16:20;100149.00;;;12.20;100.00
46087;BME280;31824;49.648;8.640;2023-04-29T05:19:22;100145.28;;;12.28;100.00
46087;BME280;31824;49.648;8.640;2023-04-29T05:22:24;100149.25;;;12.33;100.00
46087;BME280;31824;49.648;8.640;2023-04-29T05:25:26;100153.03;;;12.37;100.00
46087;BME280;31824;49.648;8.640;2023-04-29T05:28:29;100162.25;;;12.42;100.00
46087;BME280;31824;49.648;8.640;2023-04-29T05:31:33;100163.56;;;12.37;100.00
46087;BME280;31824;49.648;8.640;2023-04-29T05:34:37;100170.31;;;12.33;100.00
46087;BME280;31824;49.648;8.640;2023-04-29T05:37:39;100174.66;;;12.33;100.00
46087;BME280;31824;49.648;8.640;2023-04-29T05:41:01;100174.66;;;12.43;100.00
46087;BME280;31824;49.648;8.640;2023-04-29T05:44:22;100179.78;;;12.42;100.00
46087;BME280;31824;49.648;8.640;2023-04-29T05:47:26;100186.75;;;12.41;100.00
46087;BME280;31824;49.648;8.640;2023-04-29T05:50:28;100188.59;;;12.42;100.00
46087;BME280;31824;49.648;8.640;2023-04-29T05:53:30;100195.06;;;12.46;100.00
46087;BME280;31824;49.648;8.640;2023-04-29T05:56:32;100197.69;;;12.46;100.00
46087;BME280;31824;49.648;8.640;2023-04-29T05:59:34;100204.25;;;12.51;100.00
46087;BME280;31824;49.648;8.640;2023-04-29T06:02:40;100207.00;;;12.63;100.00
46087;BME280;31824;49.648;8.640;2023-04-29T06:05:56;100197.41;;;12.53;100.00
46087;BME280;31824;49.648;8.640;2023-04-29T06:09:12;100207.69;;;12.60;100.00
46087;BME280;31824;49.648;8.640;2023-04-29T06:12:29;100212.03;;;12.60;100.00
46087;BME280;31824;49.648;8.640;2023-04-29T06:15:32;100212.25;;;12.83;100.00
46087;BME280;31824;49.648;8.640;2023-04-29T06:18:35;100215.16;;;12.87;100.00
46087;BME280;31824;49.648;8.640;2023-04-29T06:21:37;100221.50;;;12.78;100.00
46087;BME280;31824;49.648;8.640;2023-04-29T06:24:40;100219.97;;;13.03;100.00
46087;BME280;31824;49.648;8.640;2023-04-29T06:27:43;100225.00;;;12.99;100.00
46087;BME280;31824;49.648;8.640;2023-04-29T06:30:45;100231.66;;;12.74;100.00
46087;BME280;31824;49.648;8.640;2023-04-29T06:33:49;100234.09;;;12.93;100.00
46087;BME280;31824;49.648;8.640;2023-04-29T06:36:51;100239.66;;;12.86;100.00
46087;BME280;31824;49.648;8.640;2023-04-29T06:40:23;100248.94;;;12.60;100.00
46087;BME280;31824;49.648;8.640;2023-04-29T06:43:43;100245.72;;;12.84;100.00
46087;BME280;31824;49.648;8.640;2023-04-29T06:47:08;100252.38;;;13.22;100.00
46087;BME280;31824;49.648;8.640;2023-04-29T06:50:19;100248.00;;;12.80;100.00
46087;BME280;31824;49.648;8.640;2023-04-29T06:53:21;100255.63;;;12.87;100.00
46087;BME280;31824;49.648;8.640;2023-04-29T06:56:23;100264.59;;;12.79;100.00
46087;BME280;31824;49.648;8.640;2023-04-29T06:59:26;100269.50;;;12.74;100.00
46087;BME280;31824;49.648;8.640;2023-04-29T07:02:28;100259.16;;;12.98;100.00
46087;BME280;31824;49.648;8.640;2023-04-29T07:05:31;100273.00;;;12.95;100.00
46087;BME280;31824;49.648;8.640;2023-04-29T07:08:33;100273.25;;;12.98;100.00
46087;BME280;31824;49.648;8.640;2023-04-29T07:11:35;100280.00;;;12.84;100.00
46087;BME280;31824;49.648;8.640;2023-04-29T07:14:37;100276.59;;;12.86;100.00
46087;BME280;31824;49.648;8.640;2023-04-29T07:17:39;100280.25;;;12.88;100.00
46087;BME280;31824;49.648;8.640;2023-04-29T07:20:42;100290.78;;;12.98;100.00
46087;BME280;31824;49.648;8.640;2023-04-29T07:23:45;100292.91;;;12.92;100.00
46087;BME280;31824;49.648;8.640;2023-04-29T07:26:47;100297.38;;;13.03;100.00
46087;BME280;31824;49.648;8.640;2023-04-29T07:29:50;100292.47;;;13.18;100.00
46087;BME280;31824;49.648;8.640;2023-04-29T07:32:52;100307.34;;;13.17;100.00
46087;BME280;31824;49.648;8.640;2023-04-29T07:35:55;100307.97;;;13.56;100.00
46087;BME280;31824;49.648;8.640;2023-04-29T07:38:57;100315.63;;;13.32;100.00
46087;BME280;31824;49.648;8.640;2023-04-29T07:42:00;100313.81;;;13.21;100.00
46087;BME280;31824;49.648;8.640;2023-04-29T07:45:05;100315.13;;;13.37;100.00
46087;BME280;31824;49.648;8.640;2023-04-29T07:48:07;100318.28;;;13.53;100.00
46087;BME280;31824;49.648;8.640;2023-04-29T07:51:13;100322.19;;;13.58;100.00
46087;BME280;31824;49.648;8.640;2023-04-29T07:54:16;100324.59;;;13.45;100.00
46087;BME280;31824;49.648;8.640;2023-04-29T07:57:19;100326.63;;;13.37;100.00
46087;BME280;31824;49.648;8.640;2023-04-29T08:00:22;100326.22;;;13.43;100.00
46087;BME280;31824;49.648;8.640;2023-04-29T08:03:25;100327.78;;;13.41;100.00
46087;BME280;31824;49.648;8.640;2023-04-29T08:06:31;100333.63;;;13.69;100.00
46087;BME280;31824;49.648;8.640;2023-04-29T08:09:35;100332.53;;;13.77;100.00
46087;BME280;31824;49.648;8.640;2023-04-29T08:12:38;100340.34;;;13.76;100.00
46087;BME280;31824;49.648;8.640;2023-04-29T08:15:41;100342.00;;;13.32;100.00
46087;BME280;31824;49.648;8.640;2023-04-29T08:18:43;100346.91;;;13.81;100.00
46087;BME280;31824;49.648;8.640;2023-04-29T08:21:46;100346.50;;;14.09;100.00
46087;BME280;31824;49.648;8.640;2023-04-29T08:24:48;100357.69;;;14.16;100.00
46087;BME280;31824;49.648;8.640;2023-04-29T08:27:50;100357.59;;;13.82;100.00
46087;BME280;31824;49.648;8.640;2023-04-29T08:30:52;100350.13;;;13.99;100.00
46087;BME280;31824;49.648;8.640;2023-04-29T08:33:54;100357.69;;;13.94;100.00
46087;BME280;31824;49.648;8.640;2023-04-29T08:36:58;100370.25;;;14.19;100.00
46087;BME280;31824;49.648;8.640;2023-04-29T08:40:00;100372.03;;;13.76;100.00
46087;BME280;31824;49.648;8.640;2023-04-29T08:43:02;100375.59;;;13.76;100.00
46087;BME280;31824;49.648;8.640;2023-04-29T08:46:06;100363.25;;;13.55;100.00
46087;BME280;31824;49.648;8.640;2023-04-29T08:49:08;100364.94;;;13.64;100.00
46087;BME280;31824;49.648;8.640;2023-04-29T08:52:11;100374.09;;;13.90;100.00
46087;BME280;31824;49.648;8.640;2023-04-29T08:55:13;100376.09;;;13.82;100.00
46087;BME280;31824;49.648;8.640;2023-04-29T08:58:15;100379.28;;;13.78;100.00
46087;BME280;31824;49.648;8.640;2023-04-29T09:01:17;100381.63;;;13.85;100.00
46087;BME280;31824;49.648;8.640;2023-04-29T09:04:29;100386.69;;;14.05;100.00
46087;BME280;31824;49.648;8.640;2023-04-29T09:07:40;100377.38;;;14.20;100.00
46087;BME280;31824;49.648;8.640;2023-04-29T09:10:42;100385.31;;;14.20;100.00
46087;BME280;31824;49.648;8.640;2023-04-29T09:13:44;100392.84;;;14.15;100.00
46087;BME280;31824;49.648;8.640;2023-04-29T09:16:46;100399.44;;;14.43;100.00
46087;BME280;31824;49.648;8.640;2023-04-29T09:19:48;100399.44;;;14.87;100.00
46087;BME280;31824;49.648;8.640;2023-04-29T09:22:53;100398.72;;;14.33;100.00
46087;BME280;31824;49.648;8.640;2023-04-29T09:25:55;100395.44;;;14.26;100.00
46087;BME280;31824;49.648;8.640;2023-04-29T09:29:08;100400.59;;;14.24;100.00
46087;BME280;31824;49.648;8.640;2023-04-29T09:32:18;100396.75;;;14.31;100.00
46087;BME280;31824;49.648;8.640;2023-04-29T09:35:22;100399.59;;;13.79;100.00
46087;BME280;31824;49.648;8.640;2023-04-29T09:38:28;100404.28;;;13.94;100.00
46087;BME280;31824;49.648;8.640;2023-04-29T09:41:29;100406.56;;;13.89;100.00
46087;BME280;31824;49.648;8.640;2023-04-29T09:44:33;100409.50;;;13.82;100.00
46087;BME280;31824;49.648;8.640;2023-04-29T09:47:36;100405.66;;;14.21;100.00
46087;BME280;31824;49.648;8.640;2023-04-29T09:50:39;100412.84;;;14.01;100.00
46087;BME280;31824;49.648;8.640;2023-04-29T09:54:19;100406.91;;;14.26;100.00
46087;BME280;31824;49.648;8.640;2023-04-29T09:57:20;100415.84;;;14.16;100.00
46087;BME280;31824;49.648;8.640;2023-04-29T10:00:29;100417.44;;;14.59;100.00
46087;BME280;31824;49.648;8.640;2023-04-29T10:03:34;100425.16;;;14.56;100.00
46087;BME280;31824;49.648;8.640;2023-04-29T10:06:37;100414.81;;;14.37;100.00
46087;BME280;31824;49.648;8.640;2023-04-29T10:09:43;100423.38;;;14.44;100.00
46087;BME280;31824;49.648;8.640;2023-04-29T10:12:45;100418.81;;;14.98;100.00
46087;BME280;31824;49.648;8.640;2023-04-29T10:15:53;100427.81;;;14.78;100.00
46087;BME280;31824;49.648;8.640;2023-04-29T10:18:59;100436.50;;;15.45;100.00
46087;BME280;31824;49.648;8.640;2023-04-29T10:22:08;55916.78;;;-146.75;100.00
46087;BME280;31824;49.648;8.640;2023-04-29T10:25:12;55916.78;;;-146.75;100.00
46087;BME280;31824;49.648;8.640;2023-04-29T10:28:16;55916.78;;;-146.75;100.00
46087;BME280;31824;49.648;8.640;2023-04-29T10:47:41;55916.78;;;-146.75;100.00
46087;BME280;31824;49.648;8.640;2023-04-29T10:51:00;55916.78;;;-146.75;100.00
46087;BME280;31824;49.648;8.640;2023-04-29T10:54:06;55916.78;;;-146.75;100.00
46087;BME280;31824;49.648;8.640;2023-04-29T10:57:19;55916.78;;;-146.75;100.00
46087;BME280;31824;49.648;8.640;2023-04-29T11:02:41;100439.06;;;14.75;100.00
46087;BME280;31824;49.648;8.640;2023-04-29T11:05:44;100431.25;;;14.77;100.00
46087;BME280;31824;49.648;8.640;2023-04-29T11:08:46;55916.78;;;-146.75;100.00
46087;BME280;31824;49.648;8.640;2023-04-29T11:11:56;55916.78;;;-146.75;100.00
46087;BME280;31824;49.648;8.640;2023-04-29T11:17:41;55916.78;;;-146.75;100.00
46087;BME280;31824;49.648;8.640;2023-04-29T11:21:13;55916.78;;;-146.75;100.00
46087;BME280;31824;49.648;8.640;2023-04-29T11:24:15;55916.78;;;-146.75;100.00
46087;BME280;31824;49.648;8.640;2023-04-29T11:27:19;55916.78;;;-146.75;100.00
46087;BME280;31824;49.648;8.640;2023-04-29T11:32:41;55916.78;;;-146.75;100.00
46087;BME280;31824;49.648;8.640;2023-04-29T11:35:43;55916.78;;;-146.75;100.00
46087;BME280;31824;49.648;8.640;2023-04-29T11:38:45;55916.78;;;-146.75;100.00
46087;BME280;31824;49.648;8.640;2023-04-29T11:41:48;55916.78;;;-146.75;100.00
46087;BME280;31824;49.648;8.640;2023-04-29T11:47:43;55916.78;;;-146.75;100.00
46087;BME280;31824;49.648;8.640;2023-04-29T11:50:48;55916.78;;;-146.75;100.00
46087;BME280;31824;49.648;8.640;2023-04-29T11:53:50;55916.78;;;-146.75;100.00
46087;BME280;31824;49.648;8.640;2023-04-29T11:56:52;55916.78;;;-146.75;100.00
46087;BME280;31824;49.648;8.640;2023-04-29T12:02:44;55916.78;;;-146.75;100.00
46087;BME280;31824;49.648;8.640;2023-04-29T12:05:50;55916.78;;;-146.75;100.00
46087;BME280;31824;49.648;8.640;2023-04-29T12:08:52;55916.78;;;-146.75;100.00
46087;BME280;31824;49.648;8.640;2023-04-29T12:11:54;55916.78;;;-146.75;100.00
46087;BME280;31824;49.648;8.640;2023-04-29T12:17:41;100454.00;;;15.43;100.00
46087;BME280;31824;49.648;8.640;2023-04-29T12:20:46;100453.97;;;15.31;100.00
46087;BME280;31824;49.648;8.640;2023-04-29T12:23:58;100456.50;;;15.99;100.00
46087;BME280;31824;49.648;8.640;2023-04-29T12:27:00;100457.44;;;15.42;100.00
46087;BME280;31824;49.648;8.640;2023-04-29T12:30:06;100456.97;;;15.24;100.00
46087;BME280;31824;49.648;8.640;2023-04-29T12:33:10;100461.19;;;15.10;100.00
46087;BME280;31824;49.648;8.640;2023-04-29T12:36:17;100458.59;;;15.33;100.00
46087;BME280;31824;49.648;8.640;2023-04-29T12:39:19;100458.53;;;14.88;100.00
46087;BME280;31824;49.648;8.640;2023-04-29T12:42:21;100464.09;;;15.25;100.00
46087;BME280;31824;49.648;8.640;2023-04-29T12:45:27;100465.88;;;15.60;100.00
46087;BME280;31824;49.648;8.640;2023-04-29T12:48:32;100460.25;;;15.09;100.00
46087;BME280;31824;49.648;8.640;2023-04-29T12:51:34;100460.41;;;14.66;100.00
46087;BME280;31824;49.648;8.640;2023-04-29T12:54:37;100463.66;;;15.30;100.00
46087;BME280;31824;49.648;8.640;2023-04-29T12:57:41;100462.50;;;14.38;100.00
46087;BME280;31824;49.648;8.640;2023-04-29T13:00:43;100459.38;;;15.21;100.00
46087;BME280;31824;49.648;8.640;2023-04-29T13:03:46;100463.81;;;15.10;100.00
46087;BME280;31824;49.648;8.640;2023-04-29T13:06:48;100463.56;;;15.07;100.00
46087;BME280;31824;49.648;8.640;2023-04-29T13:09:52;100467.16;;;15.53;100.00
46087;BME280;31824;49.648;8.640;2023-04-29T13:12:54;100468.56;;;15.26;100.00
46087;BME280;31824;49.648;8.640;2023-04-29T13:15:56;100457.03;;;16.42;100.00
46087;BME280;31824;49.648;8.640;2023-04-29T13:18:59;100460.25;;;15.79;100.00
46087;BME280;31824;49.648;8.640;2023-04-29T13:22:18;100464.09;;;15.82;100.00
46087;BME280;31824;49.648;8.640;2023-04-29T13:25:20;100468.56;;;15.26;100.00
46087;BME280;31824;49.648;8.640;2023-04-29T13:28:22;100467.13;;;15.87;100.00
46087;BME280;31824;49.648;8.640;2023-04-29T13:31:24;100462.31;;;16.54;100.00
46087;BME280;31824;49.648;8.640;2023-04-29T13:34:28;100468.31;;;16.63;100.00
46087;BME280;31824;49.648;8.640;2023-04-29T13:37:30;100462.31;;;16.54;100.00
46087;BME280;31824;49.648;8.640;2023-04-29T13:40:33;100467.38;;;17.50;100.00
46087;BME280;31824;49.648;8.640;2023-04-29T13:43:43;100465.41;;;16.60;100.00
46087;BME280;31824;49.648;8.640;2023-04-29T13:46:45;100456.75;;;16.63;100.00
46087;BME280;31824;49.648;8.640;2023-04-29T13:49:49;100465.19;;;15.62;100.00
46087;BME280;31824;49.648;8.640;2023-04-29T13:52:54;55916.78;;;-146.75;100.00
46087;BME280;31824;49.648;8.640;2023-04-29T13:56:18;55916.78;;;-146.75;100.00
46087;BME280;31824;49.648;8.640;2023-04-29T14:02:42;55916.78;;;-146.75;100.00
46087;BME280;31824;49.648;8.640;2023-04-29T14:05:45;55916.78;;;-146.75;100.00
46087;BME280;31824;49.648;8.640;2023-04-29T14:08:48;55916.78;;;-146.75;100.00
46087;BME280;31824;49.648;8.640;2023-04-29T14:11:50;55916.78;;;-146.75;100.00
46087;BME280;31824;49.648;8.640;2023-04-29T14:17:41;55916.78;;;-146.75;100.00
46087;BME280;31824;49.648;8.640;2023-04-29T14:20:43;55916.78;;;-146.75;100.00
46087;BME280;31824;49.648;8.640;2023-04-29T14:23:45;55916.78;;;-146.75;100.00
46087;BME280;31824;49.648;8.640;2023-04-29T14:26:52;55916.78;;;-146.75;100.00
46087;BME280;31824;49.648;8.640;2023-04-29T14:32:41;100474.69;;;16.18;100.00
46087;BME280;31824;49.648;8.640;2023-04-29T14:35:43;100481.34;;;15.77;100.00
46087;BME280;31824;49.648;8.640;2023-04-29T14:38:45;100482.44;;;16.03;100.00
46087;BME280;31824;49.648;8.640;2023-04-29T14:41:46;100480.13;;;15.84;100.00
46087;BME280;31824;49.648;8.640;2023-04-29T14:44:49;100493.69;;;15.77;100.00
46087;BME280;31824;49.648;8.640;2023-04-29T14:47:52;100485.31;;;14.80;100.00
46087;BME280;31824;49.648;8.640;2023-04-29T14:50:54;100488.59;;;15.00;100.00
46087;BME280;31824;49.648;8.640;2023-04-29T14:53:56;100499.31;;;15.24;100.00
46087;BME280;31824;49.648;8.640;2023-04-29T14:56:58;100497.94;;;15.29;100.00
46087;BME280;31824;49.648;8.640;2023-04-29T14:59:59;100497.44;;;15.23;100.00
46087;BME280;31824;49.648;8.640;2023-04-29T15:03:03;100498.81;;;15.17;100.00
46087;BME280;31824;49.648;8.640;2023-04-29T15:06:05;100499.19;;;15.22;100.00
46087;BME280;31824;49.648;8.640;2023-04-29T15:09:07;100492.09;;;15.11;100.00
46087;BME280;31824;49.648;8.640;2023-04-29T15:12:09;100507.81;;;15.19;100.00
46087;BME280;31824;49.648;8.640;2023-04-29T15:15:11;100511.63;;;15.23;100.00
46087;BME280;31824;49.648;8.640;2023-04-29T15:18:14;100512.78;;;15.27;100.00
46087;BME280;31824;49.648;8.640;2023-04-29T15:21:16;100506.28;;;15.45;100.00
46087;BME280;31824;49.648;8.640;2023-04-29T15:24:21;100502.41;;;15.18;100.00
46087;BME280;31824;49.648;8.640;2023-04-29T15:27:23;100510.34;;;15.64;100.00
46087;BME280;31824;49.648;8.640;2023-04-29T15:30:25;100502.97;;;15.60;100.00
46087;BME280;31824;49.648;8.640;2023-04-29T15:33:29;100504.09;;;15.40;100.00
46087;BME280;31824;49.648;8.640;2023-04-29T15:36:31;100517.88;;;15.81;100.00
46087;BME280;31824;49.648;8.640;2023-04-29T15:39:35;100514.97;;;15.78;100.00
46087;BME280;31824;49.648;8.640;2023-04-29T15:42:37;100522.13;;;15.79;100.00
46087;BME280;31824;49.648;8.640;2023-04-29T15:45:39;100518.38;;;15.53;100.00
46087;BME280;31824;49.648;8.640;2023-04-29T15:48:42;100522.88;;;15.55;100.00
46087;BME280;31824;49.648;8.640;2023-04-29T15:51:45;100519.38;;;15.78;100.00
46087;BME280;31824;49.648;8.640;2023-04-29T15:54:47;100516.91;;;15.69;100.00
46087;BME280;31824;49.648;8.640;2023-04-29T15:57:49;100519.22;;;15.64;100.00
46087;BME280;31824;49.648;8.640;2023-04-29T16:00:52;100516.72;;;15.32;100.00
46087;BME280;31824;49.648;8.640;2023-04-29T16:03:55;100528.50;;;15.47;100.00
46087;BME280;31824;49.648;8.640;2023-04-29T16:07:00;100530.00;;;15.44;100.00
46087;BME280;31824;49.648;8.640;2023-04-29T16:10:06;100529.22;;;15.23;100.00
46087;BME280;31824;49.648;8.640;2023-04-29T16:13:08;100530.38;;;15.26;100.00
46087;BME280;31824;49.648;8.640;2023-04-29T16:16:09;100533.72;;;15.24;100.00
46087;BME280;31824;49.648;8.640;2023-04-29T16:19:12;100522.69;;;15.29;100.00
46087;BME280;31824;49.648;8.640;2023-04-29T16:22:15;100536.31;;;15.46;100.00
46087;BME280;31824;49.648;8.640;2023-04-29T16:25:16;100531.88;;;15.23;100.00
46087;BME280;31824;49.648;8.640;2023-04-29T16:28:18;100530.28;;;15.25;100.00
46087;BME280;31824;49.648;8.640;2023-04-29T16:31:20;100527.34;;;15.10;100.00
46087;BME280;31824;49.648;8.640;2023-04-29T16:34:24;100530.69;;;14.97;100.00